sensor_id;sensor_type;location;lat;lon;timestamp;pressure;altitude;pressure_sealevel;temperature;humidity
15670;BME280;18524;45.190;5.732;2023-02-14T00:01:10;101060.84;;;7.28;66.27
15670;BME280;18524;45.190;5.732;2023-02-14T00:06:11;101052.44;;;7.19;65.96
15670;BME280;18524;45.190;5.732;2023-02-14T00:11:03;101055.53;;;7.06;66.83
15670;BME280;18524;45.190;5.732;2023-02-14T00:15:54;101056.34;;;6.83;68.13
15670;BME280;18524;45.190;5.732;2023-02-14T00:20:45;101053.50;;;6.64;69.72
15670;BME280;18524;45.190;5.732;2023-02-14T00:25:35;101046.56;;;6.63;70.17
15670;BME280;18524;45.190;5.732;2023-02-14T00:30:25;101053.19;;;6.73;68.82
15670;BME280;18524;45.190;5.732;2023-02-14T00:35:16;101052.47;;;6.70;69.74
15670;BME280;18524;45.190;5.732;2023-02-14T00:40:07;101046.13;;;6.77;69.39
15670;BME280;18524;45.190;5.732;2023-02-14T00:44:58;101048.38;;;6.61;69.71
15670;BME280;18524;45.190;5.732;2023-02-14T00:49:48;101047.13;;;6.73;69.48
15670;BME280;18524;45.190;5.732;2023-02-14T00:54:38;101048.69;;;6.52;69.07
15670;BME280;18524;45.190;5.732;2023-02-14T00:59:29;101046.72;;;6.58;69.11
15670;BME280;18524;45.190;5.732;2023-02-14T01:04:19;101047.69;;;6.56;69.30
15670;BME280;18524;45.190;5.732;2023-02-14T01:09:10;101045.31;;;6.75;68.38
15670;BME280;18524;45.190;5.732;2023-02-14T01:14:00;101048.84;;;6.74;68.16
15670;BME280;18524;45.190;5.732;2023-02-14T01:18:51;101046.97;;;6.77;68.40
15670;BME280;18524;45.190;5.732;2023-02-14T01:23:42;101056.09;;;6.64;69.38
15670;BME280;18524;45.190;5.732;2023-02-14T01:28:34;101052.63;;;6.39;70.86
15670;BME280;18524;45.190;5.732;2023-02-14T01:33:24;101044.53;;;6.20;71.71
15670;BME280;18524;45.190;5.732;2023-02-14T01:38:15;101052.44;;;6.17;72.00
15670;BME280;18524;45.190;5.732;2023-02-14T01:43:12;101047.91;;;5.95;72.98
15670;BME280;18524;45.190;5.732;2023-02-14T01:48:04;101048.81;;;5.65;74.31
15670;BME280;18524;45.190;5.732;2023-02-14T01:52:58;101042.09;;;5.58;74.21
15670;BME280;18524;45.190;5.732;2023-02-14T01:58:02;101040.91;;;5.68;73.77
15670;BME280;18524;45.190;5.732;2023-02-14T02:02:55;101037.44;;;5.68;73.02
15670;BME280;18524;45.190;5.732;2023-02-14T02:07:46;101036.59;;;5.67;73.57
15670;BME280;18524;45.190;5.732;2023-02-14T02:12:37;101024.16;;;5.77;73.49
15670;BME280;18524;45.190;5.732;2023-02-14T02:18:02;101020.75;;;5.75;73.48
15670;BME280;18524;45.190;5.732;2023-02-14T02:23:09;101024.00;;;5.81;72.32
15670;BME280;18524;45.190;5.732;2023-02-14T02:33:57;101026.47;;;5.58;73.93
15670;BME280;18524;45.190;5.732;2023-02-14T02:44:26;101024.72;;;5.58;73.82
15670;BME280;18524;45.190;5.732;2023-02-14T02:49:44;101024.66;;;5.60;73.99
15670;BME280;18524;45.190;5.732;2023-02-14T02:55:06;101026.09;;;5.70;73.52
15670;BME280;18524;45.190;5.732;2023-02-14T03:00:03;101017.69;;;5.90;72.98
15670;BME280;18524;45.190;5.732;2023-02-14T03:04:59;101018.41;;;5.95;72.89
15670;BME280;18524;45.190;5.732;2023-02-14T03:09:57;101025.16;;;5.73;73.65
15670;BME280;18524;45.190;5.732;2023-02-14T03:15:20;101022.03;;;5.61;74.04
15670;BME280;18524;45.190;5.732;2023-02-14T03:30:25;101034.72;;;5.12;76.56
15670;BME280;18524;45.190;5.732;2023-02-14T03:40:21;101032.47;;;4.99;77.75
15670;BME280;18524;45.190;5.732;2023-02-14T03:45:19;101029.50;;;5.12;76.32
15670;BME280;18524;45.190;5.732;2023-02-14T03:50:16;101025.44;;;5.03;77.01
15670;BME280;18524;45.190;5.732;2023-02-14T03:55:08;101030.88;;;4.94;77.37
15670;BME280;18524;45.190;5.732;2023-02-14T03:59:58;101025.47;;;5.01;77.44
15670;BME280;18524;45.190;5.732;2023-02-14T04:04:50;101029.00;;;4.99;76.96
15670;BME280;18524;45.190;5.732;2023-02-14T04:09:42;101027.22;;;5.01;77.31
15670;BME280;18524;45.190;5.732;2023-02-14T04:14:32;101033.31;;;5.00;77.20
15670;BME280;18524;45.190;5.732;2023-02-14T04:19:23;101034.03;;;4.72;78.13
15670;BME280;18524;45.190;5.732;2023-02-14T04:24:13;101027.22;;;4.68;78.76
15670;BME280;18524;45.190;5.732;2023-02-14T04:29:03;101026.56;;;4.60;79.73
15670;BME280;18524;45.190;5.732;2023-02-14T04:33:54;101023.19;;;4.57;79.53
15670;BME280;18524;45.190;5.732;2023-02-14T04:38:45;101026.72;;;4.54;80.62
15670;BME280;18524;45.190;5.732;2023-02-14T04:43:35;101021.28;;;4.63;79.95
15670;BME280;18524;45.190;5.732;2023-02-14T04:48:25;101021.50;;;4.88;78.60
15670;BME280;18524;45.190;5.732;2023-02-14T04:53:16;101020.06;;;4.77;78.24
15670;BME280;18524;45.190;5.732;2023-02-14T04:58:08;101025.75;;;4.58;79.29
15670;BME280;18524;45.190;5.732;2023-02-14T05:02:58;101024.22;;;4.51;80.20
15670;BME280;18524;45.190;5.732;2023-02-14T05:07:49;101018.69;;;4.63;78.61
15670;BME280;18524;45.190;5.732;2023-02-14T05:12:39;101020.81;;;4.49;79.21
15670;BME280;18524;45.190;5.732;2023-02-14T05:17:30;101018.75;;;4.26;80.71
15670;BME280;18524;45.190;5.732;2023-02-14T05:22:20;101013.34;;;4.35;80.56
15670;BME280;18524;45.190;5.732;2023-02-14T05:27:10;101015.28;;;4.27;81.19
15670;BME280;18524;45.190;5.732;2023-02-14T05:32:01;101021.25;;;4.31;81.30
15670;BME280;18524;45.190;5.732;2023-02-14T05:36:51;101024.28;;;4.48;80.82
15670;BME280;18524;45.190;5.732;2023-02-14T05:41:43;101026.84;;;4.50;80.51
15670;BME280;18524;45.190;5.732;2023-02-14T05:46:33;101021.28;;;4.29;80.84
15670;BME280;18524;45.190;5.732;2023-02-14T05:51:23;101019.34;;;4.37;80.17
15670;BME280;18524;45.190;5.732;2023-02-14T05:56:14;101026.41;;;4.32;80.52
15670;BME280;18524;45.190;5.732;2023-02-14T06:01:04;101024.22;;;4.16;81.69
15670;BME280;18524;45.190;5.732;2023-02-14T06:05:55;101034.06;;;4.01;82.65
15670;BME280;18524;45.190;5.732;2023-02-14T06:10:45;101025.13;;;4.15;82.13
15670;BME280;18524;45.190;5.732;2023-02-14T06:15:36;101026.44;;;4.31;81.61
15670;BME280;18524;45.190;5.732;2023-02-14T06:20:27;101019.38;;;4.36;80.67
15670;BME280;18524;45.190;5.732;2023-02-14T06:25:17;101019.63;;;4.27;80.67
15670;BME280;18524;45.190;5.732;2023-02-14T06:30:09;101026.66;;;4.22;81.17
15670;BME280;18524;45.190;5.732;2023-02-14T06:34:59;101028.75;;;4.06;82.07
15670;BME280;18524;45.190;5.732;2023-02-14T06:39:50;101035.84;;;3.99;82.69
15670;BME280;18524;45.190;5.732;2023-02-14T06:44:40;101030.06;;;3.88;83.07
15670;BME280;18524;45.190;5.732;2023-02-14T06:49:30;101033.31;;;3.96;83.23
15670;BME280;18524;45.190;5.732;2023-02-14T06:54:22;101028.78;;;4.04;83.80
15670;BME280;18524;45.190;5.732;2023-02-14T06:59:12;101040.53;;;4.21;83.04
15670;BME280;18524;45.190;5.732;2023-02-14T07:04:03;101042.19;;;4.25;82.60
15670;BME280;18524;45.190;5.732;2023-02-14T07:08:53;101047.59;;;4.16;81.58
15670;BME280;18524;45.190;5.732;2023-02-14T07:13:44;101053.59;;;4.18;83.02
15670;BME280;18524;45.190;5.732;2023-02-14T07:18:34;101056.91;;;3.87;83.70
15670;BME280;18524;45.190;5.732;2023-02-14T07:23:25;101059.53;;;3.86;84.45
15670;BME280;18524;45.190;5.732;2023-02-14T07:28:15;101046.78;;;4.14;83.63
15670;BME280;18524;45.190;5.732;2023-02-14T07:33:05;101044.81;;;4.23;82.08
15670;BME280;18524;45.190;5.732;2023-02-14T07:37:56;101047.91;;;4.37;81.71
15670;BME280;18524;45.190;5.732;2023-02-14T07:42:54;101038.94;;;4.51;80.80
15670;BME280;18524;45.190;5.732;2023-02-14T07:47:46;101042.31;;;4.54;80.90
15670;BME280;18524;45.190;5.732;2023-02-14T07:52:37;101046.91;;;4.77;80.15
15670;BME280;18524;45.190;5.732;2023-02-14T07:57:28;101039.31;;;5.02;78.87
15670;BME280;18524;45.190;5.732;2023-02-14T08:02:18;101040.13;;;5.35;77.45
15670;BME280;18524;45.190;5.732;2023-02-14T08:07:10;101036.22;;;5.50;76.20
15670;BME280;18524;45.190;5.732;2023-02-14T08:12:00;101035.59;;;6.01;73.84
15670;BME280;18524;45.190;5.732;2023-02-14T08:17:09;101042.78;;;6.20;73.96
15670;BME280;18524;45.190;5.732;2023-02-14T08:22:00;101033.44;;;6.66;70.80
15670;BME280;18524;45.190;5.732;2023-02-14T08:26:51;101025.03;;;6.83;70.11
15670;BME280;18524;45.190;5.732;2023-02-14T08:31:41;101023.69;;;7.21;68.96
15670;BME280;18524;45.190;5.732;2023-02-14T08:36:32;101017.38;;;7.27;67.88
15670;BME280;18524;45.190;5.732;2023-02-14T08:41:23;101009.88;;;7.64;66.81
15670;BME280;18524;45.190;5.732;2023-02-14T08:46:13;101008.25;;;8.05;63.48
15670;BME280;18524;45.190;5.732;2023-02-14T08:51:07;101008.19;;;8.07;63.60
15670;BME280;18524;45.190;5.732;2023-02-14T08:56:05;101005.81;;;8.01;63.10
15670;BME280;18524;45.190;5.732;2023-02-14T09:00:56;101007.31;;;8.28;63.08
15670;BME280;18524;45.190;5.732;2023-02-14T09:05:47;101002.41;;;8.42;61.85
15670;BME280;18524;45.190;5.732;2023-02-14T09:10:37;100994.53;;;8.83;60.72
15670;BME280;18524;45.190;5.732;2023-02-14T09:15:28;100990.25;;;9.40;59.78
15670;BME280;18524;45.190;5.732;2023-02-14T09:20:18;100983.09;;;9.62;58.48
15670;BME280;18524;45.190;5.732;2023-02-14T09:25:10;100977.69;;;9.65;58.07
15670;BME280;18524;45.190;5.732;2023-02-14T09:30:01;100982.06;;;9.84;57.18
15670;BME280;18524;45.190;5.732;2023-02-14T09:34:51;100980.75;;;10.11;56.96
15670;BME280;18524;45.190;5.732;2023-02-14T09:40:00;100978.78;;;10.51;55.32
15670;BME280;18524;45.190;5.732;2023-02-14T09:44:54;100972.06;;;10.62;54.70
15670;BME280;18524;45.190;5.732;2023-02-14T09:49:47;100968.94;;;10.89;52.73
15670;BME280;18524;45.190;5.732;2023-02-14T09:54:41;100963.09;;;10.84;52.52
15670;BME280;18524;45.190;5.732;2023-02-14T10:05:04;100964.53;;;10.89;52.42
15670;BME280;18524;45.190;5.732;2023-02-14T10:10:07;100953.88;;;11.08;52.21
15670;BME280;18524;45.190;5.732;2023-02-14T10:15:06;100956.84;;;11.02;52.84
15670;BME280;18524;45.190;5.732;2023-02-14T10:20:09;100951.81;;;11.31;52.81
15670;BME280;18524;45.190;5.732;2023-02-14T10:25:19;100936.13;;;11.45;51.80
15670;BME280;18524;45.190;5.732;2023-02-14T10:30:21;100930.13;;;11.90;51.44
15670;BME280;18524;45.190;5.732;2023-02-14T10:50:54;100898.78;;;12.60;47.96
15670;BME280;18524;45.190;5.732;2023-02-14T10:55:51;100896.44;;;13.12;46.63
15670;BME280;18524;45.190;5.732;2023-02-14T11:00:57;100881.06;;;13.33;46.00
15670;BME280;18524;45.190;5.732;2023-02-14T11:05:49;100876.94;;;13.56;45.10
15670;BME280;18524;45.190;5.732;2023-02-14T11:10:40;100869.38;;;13.64;45.14
15670;BME280;18524;45.190;5.732;2023-02-14T11:15:38;100868.81;;;13.86;44.37
15670;BME280;18524;45.190;5.732;2023-02-14T11:20:28;100845.56;;;14.18;43.58
15670;BME280;18524;45.190;5.732;2023-02-14T11:25:28;100836.34;;;14.36;42.68
15670;BME280;18524;45.190;5.732;2023-02-14T11:30:29;100826.88;;;14.46;42.46
15670;BME280;18524;45.190;5.732;2023-02-14T11:35:25;100816.22;;;14.97;41.68
15670;BME280;18524;45.190;5.732;2023-02-14T11:40:32;100801.47;;;15.42;40.09
15670;BME280;18524;45.190;5.732;2023-02-14T11:45:32;100801.47;;;15.66;39.01
15670;BME280;18524;45.190;5.732;2023-02-14T11:50:23;100793.31;;;15.56;39.63
15670;BME280;18524;45.190;5.732;2023-02-14T11:55:41;100779.69;;;15.62;38.29
15670;BME280;18524;45.190;5.732;2023-02-14T12:00:32;100775.88;;;15.54;38.55
15670;BME280;18524;45.190;5.732;2023-02-14T12:05:45;100765.41;;;15.76;38.70
15670;BME280;18524;45.190;5.732;2023-02-14T12:10:38;100757.13;;;15.57;38.59
15670;BME280;18524;45.190;5.732;2023-02-14T12:15:52;100748.25;;;15.93;38.05
15670;BME280;18524;45.190;5.732;2023-02-14T12:20:51;100734.53;;;15.53;37.48
15670;BME280;18524;45.190;5.732;2023-02-14T12:25:50;100731.38;;;15.83;37.30
15670;BME280;18524;45.190;5.732;2023-02-14T12:30:42;100718.28;;;15.81;36.53
15670;BME280;18524;45.190;5.732;2023-02-14T12:57:17;100675.94;;;16.26;37.10
15670;BME280;18524;45.190;5.732;2023-02-14T13:02:36;100664.91;;;15.99;37.26
15670;BME280;18524;45.190;5.732;2023-02-14T13:18:48;100633.19;;;16.31;37.81
15670;BME280;18524;45.190;5.732;2023-02-14T13:23:44;100624.09;;;16.12;37.61
15670;BME280;18524;45.190;5.732;2023-02-14T13:28:36;100615.94;;;15.82;37.91
15670;BME280;18524;45.190;5.732;2023-02-14T13:33:36;100611.25;;;15.74;38.12
15670;BME280;18524;45.190;5.732;2023-02-14T13:38:28;100599.72;;;15.75;37.82
15670;BME280;18524;45.190;5.732;2023-02-14T13:43:46;100578.75;;;15.50;38.35
15670;BME280;18524;45.190;5.732;2023-02-14T13:48:36;100574.78;;;15.55;38.47
15670;BME280;18524;45.190;5.732;2023-02-14T13:58:20;100566.75;;;15.35;39.37
15670;BME280;18524;45.190;5.732;2023-02-14T14:18:36;100547.50;;;15.55;39.05
15670;BME280;18524;45.190;5.732;2023-02-14T14:23:34;100536.59;;;15.59;38.78
15670;BME280;18524;45.190;5.732;2023-02-14T14:28:29;100530.97;;;15.64;39.98
15670;BME280;18524;45.190;5.732;2023-02-14T14:38:14;100524.78;;;15.52;38.93
15670;BME280;18524;45.190;5.732;2023-02-14T14:43:11;100527.06;;;15.57;39.65
15670;BME280;18524;45.190;5.732;2023-02-14T14:48:09;100525.75;;;15.51;39.29
15670;BME280;18524;45.190;5.732;2023-02-14T14:53:06;100517.34;;;15.46;39.37
15670;BME280;18524;45.190;5.732;2023-02-14T14:58:01;100506.88;;;15.56;39.63
15670;BME280;18524;45.190;5.732;2023-02-14T15:07:46;100500.31;;;15.61;39.50
15670;BME280;18524;45.190;5.732;2023-02-14T15:12:37;100498.47;;;15.73;38.96
15670;BME280;18524;45.190;5.732;2023-02-14T15:17:46;100500.78;;;15.67;38.75
15670;BME280;18524;45.190;5.732;2023-02-14T15:22:40;100497.75;;;15.60;39.27
15670;BME280;18524;45.190;5.732;2023-02-14T15:27:31;100495.31;;;15.57;39.33
15670;BME280;18524;45.190;5.732;2023-02-14T15:32:25;100487.09;;;15.61;38.86
15670;BME280;18524;45.190;5.732;2023-02-14T15:37:17;100489.81;;;15.60;40.41
15670;BME280;18524;45.190;5.732;2023-02-14T15:42:23;100483.91;;;15.56;40.91
15670;BME280;18524;45.190;5.732;2023-02-14T15:47:18;100477.06;;;15.54;39.78
15670;BME280;18524;45.190;5.732;2023-02-14T15:52:11;100479.22;;;15.49;41.79
15670;BME280;18524;45.190;5.732;2023-02-14T15:57:04;100476.38;;;15.41;41.96
15670;BME280;18524;45.190;5.732;2023-02-14T16:01:56;100476.84;;;15.35;41.55
15670;BME280;18524;45.190;5.732;2023-02-14T16:11:51;100473.38;;;15.34;40.52
15670;BME280;18524;45.190;5.732;2023-02-14T16:16:56;100474.81;;;15.27;42.81
15670;BME280;18524;45.190;5.732;2023-02-14T16:21:54;100474.19;;;15.12;43.54
15670;BME280;18524;45.190;5.732;2023-02-14T16:26:46;100473.13;;;15.04;43.93
15670;BME280;18524;45.190;5.732;2023-02-14T16:31:43;100472.16;;;14.93;44.41
15670;BME280;18524;45.190;5.732;2023-02-14T16:36:34;100470.44;;;14.81;45.52
15670;BME280;18524;45.190;5.732;2023-02-14T16:41:26;100476.91;;;14.66;45.59
15670;BME280;18524;45.190;5.732;2023-02-14T16:46:35;100469.81;;;14.55;45.73
15670;BME280;18524;45.190;5.732;2023-02-14T16:51:32;100478.28;;;14.48;46.38
15670;BME280;18524;45.190;5.732;2023-02-14T16:56:27;100485.78;;;14.41;46.31
15670;BME280;18524;45.190;5.732;2023-02-14T17:01:18;100490.06;;;14.20;43.68
15670;BME280;18524;45.190;5.732;2023-02-14T17:06:14;100488.53;;;14.04;44.67
15670;BME280;18524;45.190;5.732;2023-02-14T17:11:06;100500.03;;;14.03;46.19
15670;BME280;18524;45.190;5.732;2023-02-14T17:15:58;100513.06;;;13.94;46.58
15670;BME280;18524;45.190;5.732;2023-02-14T17:20:50;100504.97;;;13.84;47.37
15670;BME280;18524;45.190;5.732;2023-02-14T17:25:40;100504.25;;;13.69;47.74
15670;BME280;18524;45.190;5.732;2023-02-14T17:30:31;100510.31;;;13.59;48.33
15670;BME280;18524;45.190;5.732;2023-02-14T17:35:21;100514.88;;;13.44;48.84
15670;BME280;18524;45.190;5.732;2023-02-14T17:40:12;100516.56;;;13.32;49.31
15670;BME280;18524;45.190;5.732;2023-02-14T17:45:04;100505.41;;;13.29;49.16
15670;BME280;18524;45.190;5.732;2023-02-14T17:50:00;100515.84;;;13.18;49.77
15670;BME280;18524;45.190;5.732;2023-02-14T17:54:52;100517.91;;;13.00;50.54
15670;BME280;18524;45.190;5.732;2023-02-14T17:59:43;100517.50;;;12.93;50.54
15670;BME280;18524;45.190;5.732;2023-02-14T18:04:34;100519.19;;;12.81;50.94
15670;BME280;18524;45.190;5.732;2023-02-14T18:09:26;100532.44;;;12.67;51.83
15670;BME280;18524;45.190;5.732;2023-02-14T18:14:17;100527.56;;;12.61;51.41
15670;BME280;18524;45.190;5.732;2023-02-14T18:19:07;100536.91;;;12.52;52.30
15670;BME280;18524;45.190;5.732;2023-02-14T18:24:00;100533.13;;;12.44;52.28
15670;BME280;18524;45.190;5.732;2023-02-14T18:28:51;100535.63;;;12.45;52.37
15670;BME280;18524;45.190;5.732;2023-02-14T18:33:42;100535.63;;;12.33;51.98
15670;BME280;18524;45.190;5.732;2023-02-14T18:38:33;100535.72;;;12.31;50.91
15670;BME280;18524;45.190;5.732;2023-02-14T18:43:24;100539.38;;;12.29;50.89
15670;BME280;18524;45.190;5.732;2023-02-14T18:48:14;100550.69;;;12.16;50.57
15670;BME280;18524;45.190;5.732;2023-02-14T18:53:04;100547.72;;;12.08;51.11
15670;BME280;18524;45.190;5.732;2023-02-14T18:57:55;100547.91;;;12.05;50.84
15670;BME280;18524;45.190;5.732;2023-02-14T19:02:45;100544.84;;;11.99;50.97
15670;BME280;18524;45.190;5.732;2023-02-14T19:07:36;100551.44;;;11.92;51.19
15670;BME280;18524;45.190;5.732;2023-02-14T19:12:29;100559.41;;;11.90;51.00
15670;BME280;18524;45.190;5.732;2023-02-14T19:17:21;100559.13;;;11.80;50.67
15670;BME280;18524;45.190;5.732;2023-02-14T19:22:11;100556.94;;;11.73;51.16
15670;BME280;18524;45.190;5.732;2023-02-14T19:27:01;100559.31;;;11.63;50.89
15670;BME280;18524;45.190;5.732;2023-02-14T19:31:53;100552.56;;;11.59;51.17
15670;BME280;18524;45.190;5.732;2023-02-14T19:36:49;100556.44;;;11.53;50.93
15670;BME280;18524;45.190;5.732;2023-02-14T19:41:40;100557.91;;;11.43;51.25
15670;BME280;18524;45.190;5.732;2023-02-14T19:46:32;100554.81;;;11.37;51.52
15670;BME280;18524;45.190;5.732;2023-02-14T19:51:25;100550.22;;;11.40;51.40
15670;BME280;18524;45.190;5.732;2023-02-14T19:56:29;100552.00;;;11.25;51.93
15670;BME280;18524;45.190;5.732;2023-02-14T20:06:13;100546.06;;;11.08;52.50
15670;BME280;18524;45.190;5.732;2023-02-14T20:11:04;100547.00;;;11.07;52.44
15670;BME280;18524;45.190;5.732;2023-02-14T20:15:54;100548.13;;;11.03;52.63
15670;BME280;18524;45.190;5.732;2023-02-14T20:20:45;100546.53;;;11.00;52.81
15670;BME280;18524;45.190;5.732;2023-02-14T20:25:51;100547.00;;;10.92;52.60
15670;BME280;18524;45.190;5.732;2023-02-14T20:30:41;100551.88;;;10.84;52.94
15670;BME280;18524;45.190;5.732;2023-02-14T20:35:31;100550.34;;;10.80;53.36
15670;BME280;18524;45.190;5.732;2023-02-14T20:40:27;100545.81;;;10.68;53.26
15670;BME280;18524;45.190;5.732;2023-02-14T20:45:17;100550.13;;;10.69;54.16
15670;BME280;18524;45.190;5.732;2023-02-14T20:50:08;100550.03;;;10.71;53.67
15670;BME280;18524;45.190;5.732;2023-02-14T20:54:58;100549.91;;;10.58;53.93
15670;BME280;18524;45.190;5.732;2023-02-14T20:59:49;100548.22;;;10.57;54.42
15670;BME280;18524;45.190;5.732;2023-02-14T21:04:39;100543.94;;;10.40;54.61
15670;BME280;18524;45.190;5.732;2023-02-14T21:09:30;100551.03;;;10.38;55.12
15670;BME280;18524;45.190;5.732;2023-02-14T21:14:21;100547.34;;;10.26;56.22
15670;BME280;18524;45.190;5.732;2023-02-14T21:19:12;100553.69;;;10.22;55.95
15670;BME280;18524;45.190;5.732;2023-02-14T21:24:08;100549.44;;;10.20;57.25
15670;BME280;18524;45.190;5.732;2023-02-14T21:28:59;100548.84;;;9.99;58.00
15670;BME280;18524;45.190;5.732;2023-02-14T21:33:52;100559.50;;;9.96;58.19
15670;BME280;18524;45.190;5.732;2023-02-14T21:38:43;100550.47;;;9.86;59.31
15670;BME280;18524;45.190;5.732;2023-02-14T21:43:36;100554.28;;;9.80;59.45
15670;BME280;18524;45.190;5.732;2023-02-14T21:48:27;100554.88;;;9.69;60.74
15670;BME280;18524;45.190;5.732;2023-02-14T21:53:36;100549.84;;;9.65;60.27
15670;BME280;18524;45.190;5.732;2023-02-14T21:58:26;100544.69;;;9.63;60.60
15670;BME280;18524;45.190;5.732;2023-02-14T22:03:17;100547.91;;;9.53;61.34
15670;BME280;18524;45.190;5.732;2023-02-14T22:08:07;100553.91;;;9.55;60.77
15670;BME280;18524;45.190;5.732;2023-02-14T22:12:57;100544.53;;;9.51;61.09
15670;BME280;18524;45.190;5.732;2023-02-14T22:17:48;100543.25;;;9.42;61.62
15670;BME280;18524;45.190;5.732;2023-02-14T22:22:38;100542.81;;;9.34;61.72
15670;BME280;18524;45.190;5.732;2023-02-14T22:27:28;100539.44;;;9.32;62.16
15670;BME280;18524;45.190;5.732;2023-02-14T22:32:19;100544.50;;;9.35;61.73
15670;BME280;18524;45.190;5.732;2023-02-14T22:37:09;100549.19;;;9.28;61.91
15670;BME280;18524;45.190;5.732;2023-02-14T22:42:00;100543.75;;;9.16;62.73
15670;BME280;18524;45.190;5.732;2023-02-14T22:46:55;100545.03;;;9.24;62.24
15670;BME280;18524;45.190;5.732;2023-02-14T22:51:46;100551.41;;;9.03;63.40
15670;BME280;18524;45.190;5.732;2023-02-14T22:56:38;100562.56;;;8.89;63.66
15670;BME280;18524;45.190;5.732;2023-02-14T23:01:30;100557.91;;;8.61;64.72
15670;BME280;18524;45.190;5.732;2023-02-14T23:06:26;100564.13;;;8.76;64.18
15670;BME280;18524;45.190;5.732;2023-02-14T23:11:22;100555.44;;;8.58;65.04
15670;BME280;18524;45.190;5.732;2023-02-14T23:16:12;100556.28;;;8.04;67.55
15670;BME280;18524;45.190;5.732;2023-02-14T23:21:21;100563.72;;;7.94;67.77
15670;BME280;18524;45.190;5.732;2023-02-14T23:26:30;100559.91;;;8.01;66.86
15670;BME280;18524;45.190;5.732;2023-02-14T23:31:21;100554.56;;;7.86;67.99
15670;BME280;18524;45.190;5.732;2023-02-14T23:36:11;100551.91;;;8.04;67.72
15670;BME280;18524;45.190;5.732;2023-02-14T23:41:09;100548.88;;;7.76;67.72
15670;BME280;18524;45.190;5.732;2023-02-14T23:46:18;100549.19;;;7.51;69.10
15670;BME280;18524;45.190;5.732;2023-02-14T23:51:08;100540.06;;;7.41;69.94
15670;BME280;18524;45.190;5.732;2023-02-14T23:56:00;100546.03;;;7.43;69.98
